createdAt,value
2022-10-21T00:00:10.383Z,1004.01
2022-10-21T00:01:10.344Z,1004.05
2022-10-21T00:02:10.304Z,1004.08
2022-10-21T00:03:10.288Z,1004.12
2022-10-21T00:04:10.228Z,1004.15
2022-10-21T00:05:10.187Z,1004.10
2022-10-21T00:06:10.151Z,1004.12
2022-10-21T00:07:10.109Z,1004.11
2022-10-21T00:08:10.068Z,1004.05
2022-10-21T00:09:10.127Z,1004.00
2022-10-21T00:10:09.991Z,1004.04
2022-10-21T00:11:09.954Z,1004.12
2022-10-21T00:12:09.911Z,1004.02
2022-10-21T00:13:09.872Z,1003.96
2022-10-21T00:14:09.834Z,1004.13
2022-10-21T00:15:09.805Z,1004.48
2022-10-21T00:16:09.754Z,1004.19
2022-10-21T00:17:09.714Z,1004.11
2022-10-21T00:18:09.674Z,1004.08
2022-10-21T00:19:09.638Z,1004.07
2022-10-21T00:20:09.631Z,1004.01
2022-10-21T00:21:09.573Z,1003.97
2022-10-21T00:22:09.519Z,1004.24
2022-10-21T00:23:09.480Z,1003.93
2022-10-21T00:24:09.444Z,1003.91
2022-10-21T00:25:09.401Z,1003.93
2022-10-21T00:26:09.375Z,1003.92
2022-10-21T00:27:09.327Z,1004.24
2022-10-21T00:28:09.284Z,1004.24
2022-10-21T00:29:09.316Z,1004.31
2022-10-21T00:30:09.207Z,1004.13
2022-10-21T00:31:09.167Z,1004.01
2022-10-21T00:32:09.138Z,1004.01
2022-10-21T00:33:09.087Z,1004.04
2022-10-21T00:34:09.046Z,1004.00
2022-10-21T00:35:09.010Z,1004.06
2022-10-21T00:36:08.967Z,1004.40
2022-10-21T00:37:08.929Z,1004.06
2022-10-21T00:38:08.900Z,1004.02
2022-10-21T00:39:08.853Z,1004.03
2022-10-21T00:40:08.811Z,1003.98
2022-10-21T00:41:08.776Z,1004.06
2022-10-21T00:42:08.734Z,1003.96
2022-10-21T00:43:08.703Z,1003.99
2022-10-21T00:44:08.651Z,1004.29
2022-10-21T00:45:08.619Z,1003.92
2022-10-21T00:46:08.577Z,1004.19
2022-10-21T00:47:08.537Z,1004.27
2022-10-21T00:48:08.506Z,1003.93
2022-10-21T00:49:08.458Z,1003.89
2022-10-21T00:50:08.422Z,1003.90
2022-10-21T00:51:08.380Z,1003.89
2022-10-21T00:52:08.341Z,1003.83
2022-10-21T00:53:08.312Z,1004.34
2022-10-21T00:54:08.266Z,1003.90
2022-10-21T00:55:08.222Z,1003.98
2022-10-21T00:56:09.849Z,1003.91
2022-10-21T00:57:08.144Z,1004.11
2022-10-21T00:58:08.112Z,1003.90
2022-10-21T00:59:08.069Z,1004.20
2022-10-21T01:00:08.023Z,1003.89
2022-10-21T01:01:08.056Z,1003.86
2022-10-21T01:02:07.946Z,1004.19
2022-10-21T01:03:07.921Z,1003.84
2022-10-21T01:04:07.868Z,1004.28
2022-10-21T01:05:07.827Z,1003.84
2022-10-21T01:06:07.792Z,1003.83
2022-10-21T01:07:07.753Z,1003.90
2022-10-21T01:08:07.711Z,1004.08
2022-10-21T01:09:07.720Z,1004.22
2022-10-21T01:10:07.632Z,1003.85
2022-10-21T01:11:07.603Z,1003.86
2022-10-21T01:12:07.554Z,1003.90
2022-10-21T01:13:07.514Z,1003.83
2022-10-21T01:14:07.475Z,1004.14
2022-10-21T01:15:07.443Z,1003.97
2022-10-21T01:16:07.395Z,1003.81
2022-10-21T01:17:20.548Z,1003.78
2022-10-21T01:18:07.317Z,1003.74
2022-10-21T01:19:07.279Z,1003.80
2022-10-21T01:20:07.237Z,1003.65
2022-10-21T01:21:07.201Z,1003.67
2022-10-21T01:22:07.159Z,1003.97
2022-10-21T01:23:07.132Z,1003.97
2022-10-21T01:24:07.083Z,1003.90
2022-10-21T01:25:07.042Z,1003.70
2022-10-21T01:26:07.001Z,1003.55
2022-10-21T01:27:06.965Z,1003.57
2022-10-21T01:28:06.922Z,1003.50
2022-10-21T01:29:06.894Z,1003.49
2022-10-21T01:30:06.853Z,1003.51
2022-10-21T01:31:06.806Z,1003.51
2022-10-21T01:32:06.766Z,1003.49
2022-10-21T01:33:06.783Z,1003.42
2022-10-21T01:34:06.688Z,1003.41
2022-10-21T01:35:06.651Z,1003.76
2022-10-21T01:36:06.706Z,1003.43
2022-10-21T01:37:06.570Z,1003.43
2022-10-21T01:38:06.530Z,1003.42
2022-10-21T01:39:06.491Z,1003.42
2022-10-21T01:40:06.457Z,1003.71
2022-10-21T01:41:06.423Z,1003.36
2022-10-21T01:42:06.395Z,1003.37
2022-10-21T01:43:06.336Z,1003.67
2022-10-21T01:44:06.291Z,1003.34
2022-10-21T01:45:06.254Z,1003.52
2022-10-21T01:46:06.217Z,1003.34
2022-10-21T01:47:06.184Z,1003.32
2022-10-21T01:48:06.138Z,1003.31
2022-10-21T01:49:06.094Z,1003.66
2022-10-21T01:50:06.055Z,1003.35
2022-10-21T01:51:06.053Z,1003.30
2022-10-21T01:52:05.976Z,1003.26
2022-10-21T01:53:05.939Z,1003.30
2022-10-21T01:54:05.897Z,1003.29
2022-10-21T01:55:05.858Z,1003.24
2022-10-21T01:56:05.819Z,1003.19
2022-10-21T01:57:05.793Z,1003.21
2022-10-21T01:58:05.739Z,1003.20
2022-10-21T01:59:05.703Z,1003.22
2022-10-21T02:00:05.661Z,1003.27
2022-10-21T02:01:05.673Z,1003.22
2022-10-21T02:02:05.581Z,1003.18
2022-10-21T02:03:05.559Z,1003.17
2022-10-21T02:04:05.502Z,1003.13
2022-10-21T02:05:05.464Z,1003.13
2022-10-21T02:06:05.424Z,1003.08
2022-10-21T02:07:05.384Z,1003.07
2022-10-21T02:08:05.355Z,1003.06
2022-10-21T02:09:05.410Z,1003.04
2022-10-21T02:10:05.267Z,1003.04
2022-10-21T02:11:05.228Z,1002.99
2022-10-21T02:12:05.185Z,1003.06
2022-10-21T02:13:05.148Z,1003.03
2022-10-21T02:14:05.109Z,1003.00
2022-10-21T02:15:05.081Z,1002.94
2022-10-21T02:16:05.029Z,1002.90
2022-10-21T02:17:04.990Z,1002.88
2022-10-21T02:18:04.949Z,1002.95
2022-10-21T02:19:04.915Z,1002.84
2022-10-21T02:20:04.870Z,1002.84
2022-10-21T02:21:04.845Z,1003.16
2022-10-21T02:22:04.793Z,1002.78
2022-10-21T02:23:04.755Z,1002.81
2022-10-21T02:24:04.714Z,1002.74
2022-10-21T02:25:04.675Z,1002.76
2022-10-21T02:26:04.633Z,1002.74
2022-10-21T02:27:04.609Z,1002.80
2022-10-21T02:28:04.553Z,1002.76
2022-10-21T02:29:04.517Z,1002.70
2022-10-21T02:30:04.475Z,1002.72
2022-10-21T02:31:04.437Z,1002.75
2022-10-21T02:32:04.396Z,1002.70
2022-10-21T02:33:04.370Z,1002.73
2022-10-21T02:34:04.316Z,1002.75
2022-10-21T02:35:04.280Z,1002.74
2022-10-21T02:36:04.236Z,1002.68
2022-10-21T02:37:04.203Z,1002.70
2022-10-21T02:38:04.174Z,1002.64
2022-10-21T02:39:04.125Z,1002.67
2022-10-21T02:40:04.082Z,1002.68
2022-10-21T02:41:04.041Z,1002.72
2022-10-21T02:42:04.000Z,1002.71
2022-10-21T02:43:03.962Z,1002.75
2022-10-21T02:44:03.940Z,1002.80
2022-10-21T02:45:03.887Z,1002.81
2022-10-21T02:46:03.845Z,1002.87
2022-10-21T02:47:03.847Z,1002.76
2022-10-21T02:48:03.776Z,1002.80
2022-10-21T02:49:03.725Z,1002.76
2022-10-21T02:50:03.685Z,1002.77
2022-10-21T02:51:03.647Z,1002.74
2022-10-21T02:52:11.484Z,1002.81
2022-10-21T02:53:03.568Z,1002.76
2022-10-21T02:54:03.542Z,1003.13
2022-10-21T02:55:03.492Z,1002.77
2022-10-21T02:56:03.453Z,1002.71
2022-10-21T02:57:03.418Z,1002.75
2022-10-21T02:58:03.372Z,1002.75
2022-10-21T02:59:03.344Z,1002.74
2022-10-21T03:00:03.291Z,1002.95
2022-10-21T03:01:03.310Z,1002.79
2022-10-21T03:02:03.211Z,1003.17
2022-10-21T03:03:03.173Z,1002.84
2022-10-21T03:04:03.131Z,1002.82
2022-10-21T03:05:03.104Z,1003.10
2022-10-21T03:06:03.089Z,1002.83
2022-10-21T03:07:03.022Z,1002.76
2022-10-21T03:08:02.975Z,1002.74
2022-10-21T03:09:02.969Z,1003.06
2022-10-21T03:10:02.894Z,1002.73
2022-10-21T03:11:02.855Z,1002.65
2022-10-21T03:12:02.827Z,1002.95
2022-10-21T03:13:02.779Z,1002.92
2022-10-21T03:14:02.737Z,1002.62
2022-10-21T03:15:02.699Z,1002.66
2022-10-21T03:16:02.660Z,1002.62
2022-10-21T03:17:02.620Z,1002.62
2022-10-21T03:18:02.593Z,1002.64
2022-10-21T03:19:02.555Z,1002.67
2022-10-21T03:20:02.507Z,1002.66
2022-10-21T03:21:02.464Z,1002.62
2022-10-21T03:22:02.430Z,1002.64
2022-10-21T03:23:02.385Z,1002.63
2022-10-21T03:24:02.606Z,1002.69
2022-10-21T03:25:02.305Z,1002.73
2022-10-21T03:26:02.263Z,1002.74
2022-10-21T03:27:02.228Z,1002.73
2022-10-21T03:28:02.185Z,1002.79
2022-10-21T03:29:02.147Z,1002.76
2022-10-21T03:30:02.121Z,1002.75
2022-10-21T03:31:02.069Z,1002.76
2022-10-21T03:32:02.029Z,1003.12
2022-10-21T03:33:02.005Z,1002.81
2022-10-21T03:34:01.963Z,1002.78
2022-10-21T03:35:01.911Z,1002.76
2022-10-21T03:36:01.907Z,1002.80
2022-10-21T03:37:01.830Z,1002.73
2022-10-21T03:38:01.806Z,1002.71
2022-10-21T03:39:01.764Z,1002.74
2022-10-21T03:40:01.713Z,1002.71
2022-10-21T03:41:01.676Z,1002.69
2022-10-21T03:42:01.634Z,1002.66
2022-10-21T03:43:01.607Z,1002.70
2022-10-21T03:44:01.564Z,1002.72
2022-10-21T03:45:01.515Z,1002.76
2022-10-21T03:46:01.476Z,1002.70
2022-10-21T03:47:01.438Z,1002.69
2022-10-21T03:48:01.396Z,1002.77
2022-10-21T03:49:04.378Z,1002.66
2022-10-21T03:50:01.317Z,1002.67
2022-10-21T03:51:01.280Z,1002.98
2022-10-21T03:52:01.241Z,1002.66
2022-10-21T03:53:06.646Z,1002.65
2022-10-21T03:54:01.159Z,1002.67
2022-10-21T03:55:01.134Z,1002.67
2022-10-21T03:56:01.089Z,1002.68
2022-10-21T03:57:01.057Z,1002.66
2022-10-21T03:58:01.003Z,1002.64
2022-10-21T03:59:00.966Z,1002.63
2022-10-21T04:00:00.998Z,1002.67
2022-10-21T04:01:00.885Z,1002.61
2022-10-21T04:02:00.887Z,1002.70
2022-10-21T04:03:00.831Z,1002.91
2022-10-21T04:04:00.767Z,1002.55
2022-10-21T04:05:00.726Z,1002.62
2022-10-21T04:06:00.687Z,1002.61
2022-10-21T04:07:00.652Z,1002.63
2022-10-21T04:08:00.606Z,1002.61
2022-10-21T04:09:00.769Z,1002.65
2022-10-21T04:10:00.533Z,1002.67
2022-10-21T04:11:00.494Z,1002.64
2022-10-21T04:12:00.451Z,1002.68
2022-10-21T04:13:00.412Z,1002.62
2022-10-21T04:14:00.385Z,1002.66
2022-10-21T04:15:00.331Z,1002.64
2022-10-21T04:16:00.293Z,1002.69
2022-10-21T04:17:06.762Z,1002.62
2022-10-21T04:18:00.215Z,1002.59
2022-10-21T04:19:00.175Z,1002.69
2022-10-21T04:20:00.143Z,1002.60
2022-10-21T04:21:00.109Z,1002.63
2022-10-21T04:22:00.078Z,1002.62
2022-10-21T04:23:00.016Z,1002.66
2022-10-21T04:23:59.983Z,1002.66
2022-10-21T04:25:02.307Z,1002.67
2022-10-21T04:25:59.898Z,1002.71
2022-10-21T04:26:59.870Z,1002.72
2022-10-21T04:27:59.824Z,1002.70
2022-10-21T04:28:59.795Z,1002.71
2022-10-21T04:29:59.743Z,1002.72
2022-10-21T04:30:59.701Z,1002.67
2022-10-21T04:31:59.664Z,1002.69
2022-10-21T04:32:59.625Z,1002.67
2022-10-21T04:33:59.587Z,1002.67
2022-10-21T04:34:59.555Z,1002.92
2022-10-21T04:35:59.509Z,1002.67
2022-10-21T04:37:01.231Z,1002.63
2022-10-21T04:37:59.432Z,1002.65
2022-10-21T04:38:59.388Z,1002.70
2022-10-21T04:39:59.359Z,1002.68
2022-10-21T04:40:59.309Z,1002.97
2022-10-21T04:41:59.271Z,1002.64
2022-10-21T04:42:59.237Z,1002.57
2022-10-21T04:43:59.190Z,1002.62
2022-10-21T04:44:59.151Z,1002.63
2022-10-21T04:45:59.125Z,1002.71
2022-10-21T04:46:59.073Z,1002.67
2022-10-21T04:47:59.038Z,1002.68
2022-10-21T04:48:58.997Z,1003.03
2022-10-21T04:49:58.956Z,1002.66
2022-10-21T04:50:58.920Z,1002.66
2022-10-21T04:51:58.888Z,1002.67
2022-10-21T04:52:58.837Z,1002.60
2022-10-21T04:53:58.800Z,1002.96
2022-10-21T04:54:58.760Z,1002.55
2022-10-21T04:55:58.721Z,1002.51
2022-10-21T04:56:58.681Z,1002.56
2022-10-21T04:57:58.662Z,1002.51
2022-10-21T04:58:58.603Z,1002.51
2022-10-21T04:59:58.563Z,1002.61
2022-10-21T05:00:58.558Z,1002.55
2022-10-21T05:01:58.521Z,1002.58
2022-10-21T05:02:58.446Z,1002.65
2022-10-21T05:03:58.417Z,1002.59
2022-10-21T05:04:58.369Z,1002.53
2022-10-21T05:05:58.328Z,1002.49
2022-10-21T05:06:58.324Z,1002.51
2022-10-21T05:07:58.250Z,1002.55
2022-10-21T05:08:58.286Z,1002.52
2022-10-21T05:09:58.174Z,1002.86
2022-10-21T05:10:58.136Z,1002.49
2022-10-21T05:11:58.098Z,1002.47
2022-10-21T05:12:58.068Z,1002.83
2022-10-21T05:13:58.016Z,1002.78
2022-10-21T05:14:57.977Z,1002.45
2022-10-21T05:15:57.938Z,1002.41
2022-10-21T05:16:57.900Z,1002.47
2022-10-21T05:17:57.863Z,1002.79
2022-10-21T05:18:57.833Z,1002.42
2022-10-21T05:19:57.784Z,1002.37
2022-10-21T05:20:57.745Z,1002.39
2022-10-21T05:21:57.707Z,1002.28
2022-10-21T05:22:57.666Z,1002.60
2022-10-21T05:23:57.625Z,1002.24
2022-10-21T05:24:57.598Z,1002.26
2022-10-21T05:25:57.547Z,1002.45
2022-10-21T05:26:57.508Z,1002.22
2022-10-21T05:27:57.494Z,1002.24
2022-10-21T05:28:57.439Z,1002.18
2022-10-21T05:29:57.396Z,1002.18
2022-10-21T05:30:57.364Z,1002.25
2022-10-21T05:31:57.319Z,1002.19
2022-10-21T05:32:57.276Z,1002.20
2022-10-21T05:33:57.238Z,1002.21
2022-10-21T05:34:57.198Z,1002.55
2022-10-21T05:35:57.155Z,1002.17
2022-10-21T05:36:57.128Z,1002.14
2022-10-21T05:37:57.096Z,1002.16
2022-10-21T05:38:57.039Z,1002.07
2022-10-21T05:39:57.001Z,1002.09
2022-10-21T05:40:56.961Z,1002.06
2022-10-21T05:41:56.921Z,1001.97
2022-10-21T05:42:56.883Z,1001.96
2022-10-21T05:43:56.860Z,1002.31
2022-10-21T05:44:56.807Z,1002.03
2022-10-21T05:45:56.768Z,1002.26
2022-10-21T05:46:56.725Z,1002.00
2022-10-21T05:47:56.686Z,1001.96
2022-10-21T05:48:56.658Z,1001.93
2022-10-21T05:49:56.615Z,1001.99
2022-10-21T05:50:56.569Z,1002.25
2022-10-21T05:51:56.532Z,1001.93
2022-10-21T05:52:58.527Z,1001.89
2022-10-21T05:53:56.453Z,1001.91
2022-10-21T05:54:56.424Z,1001.89
2022-10-21T05:55:56.372Z,1001.88
2022-10-21T05:56:56.334Z,1001.87
2022-10-21T05:57:59.220Z,1002.22
2022-10-21T05:58:56.267Z,1002.20
2022-10-21T05:59:56.222Z,1002.21
2022-10-21T06:00:56.251Z,1001.92
2022-10-21T06:01:56.148Z,1002.20
2022-10-21T06:02:56.097Z,1002.21
2022-10-21T06:03:56.058Z,1001.87
2022-10-21T06:04:56.020Z,1001.87
2022-10-21T06:05:56.000Z,1002.24
2022-10-21T06:07:55.902Z,1002.25
2022-10-21T06:08:55.921Z,1002.01
2022-10-21T06:09:55.826Z,1001.95
2022-10-21T06:10:55.792Z,1001.98
2022-10-21T06:11:55.744Z,1001.97
2022-10-21T06:12:55.715Z,1002.21
2022-10-21T06:13:55.668Z,1002.29
2022-10-21T06:14:55.627Z,1002.32
2022-10-21T06:15:55.668Z,1002.27
2022-10-21T06:16:55.549Z,1001.93
2022-10-21T06:17:55.522Z,1002.26
2022-10-21T06:18:55.485Z,1002.29
2022-10-21T06:19:55.433Z,1001.94
2022-10-21T06:20:55.392Z,1002.10
2022-10-21T06:21:55.354Z,1001.94
2022-10-21T06:22:55.324Z,1002.21
2022-10-21T06:23:55.283Z,1002.03
2022-10-21T06:24:55.242Z,1002.06
2022-10-21T06:25:55.197Z,1001.92
2022-10-21T06:26:55.158Z,1001.89
2022-10-21T06:27:55.119Z,1001.88
2022-10-21T06:28:55.089Z,1001.88
2022-10-21T06:29:55.047Z,1001.92
2022-10-21T06:30:55.002Z,1001.91
2022-10-21T06:31:54.961Z,1001.95
2022-10-21T06:32:54.923Z,1001.98
2022-10-21T06:33:54.886Z,1002.06
2022-10-21T06:34:54.859Z,1002.27
2022-10-21T06:35:54.820Z,1001.99
2022-10-21T06:36:54.769Z,1001.93
2022-10-21T06:37:54.742Z,1001.97
2022-10-21T06:38:54.689Z,1002.21
2022-10-21T06:39:54.661Z,1001.97
2022-10-21T06:40:54.625Z,1002.02
2022-10-21T06:41:54.571Z,1002.20
2022-10-21T06:42:54.535Z,1002.08
2022-10-21T06:43:54.492Z,1002.07
2022-10-21T06:44:56.681Z,1002.05
2022-10-21T06:45:54.417Z,1002.08
2022-10-21T06:46:54.394Z,1002.03
2022-10-21T06:47:54.336Z,1002.10
2022-10-21T06:48:54.313Z,1002.16
2022-10-21T06:49:54.265Z,1002.18
2022-10-21T06:50:54.227Z,1002.17
2022-10-21T06:51:54.182Z,1002.13
2022-10-21T06:52:54.156Z,1002.50
2022-10-21T06:53:54.104Z,1002.29
2022-10-21T06:54:54.065Z,1002.13
2022-10-21T06:55:54.027Z,1002.11
2022-10-21T06:56:53.990Z,1002.06
2022-10-21T06:57:53.949Z,1002.09
2022-10-21T06:58:53.921Z,1002.04
2022-10-21T06:59:53.872Z,1002.39
2022-10-21T07:00:53.831Z,1002.41
2022-10-21T07:02:00.195Z,1002.09
2022-10-21T07:02:53.752Z,1002.09
2022-10-21T07:03:53.720Z,1002.09
2022-10-21T07:04:53.692Z,1002.13
2022-10-21T07:05:53.642Z,1002.17
2022-10-21T07:06:53.612Z,1002.19
2022-10-21T07:07:53.559Z,1002.27
2022-10-21T07:08:58.392Z,1002.26
2022-10-21T07:09:53.481Z,1002.61
2022-10-21T07:10:53.457Z,1002.31
2022-10-21T07:11:53.406Z,1002.30
2022-10-21T07:12:53.367Z,1002.30
2022-10-21T07:13:53.328Z,1002.31
2022-10-21T07:14:53.306Z,1002.69
2022-10-21T07:16:53.223Z,1002.38
2022-10-21T07:17:53.170Z,1002.43
2022-10-21T07:18:53.134Z,1002.44
2022-10-21T07:19:53.093Z,1002.42
2022-10-21T07:20:53.057Z,1002.45
2022-10-21T07:21:53.021Z,1002.51
2022-10-21T07:22:52.999Z,1002.51
2022-10-21T07:23:52.938Z,1002.59
2022-10-21T07:24:52.959Z,1002.57
2022-10-21T07:25:52.874Z,1002.55
2022-10-21T07:26:52.826Z,1002.91
2022-10-21T07:27:52.785Z,1002.69
2022-10-21T07:28:52.760Z,1002.77
2022-10-21T07:29:52.710Z,1002.83
2022-10-21T07:30:52.675Z,1002.89
2022-10-21T07:31:52.639Z,1002.95
2022-10-21T07:32:52.599Z,1002.87
2022-10-21T07:33:52.632Z,1003.23
2022-10-21T07:34:52.537Z,1002.92
2022-10-21T07:35:52.481Z,1002.95
2022-10-21T07:36:52.436Z,1002.90
2022-10-21T07:37:52.398Z,1002.93
2022-10-21T07:38:52.363Z,1002.91
2022-10-21T07:39:52.330Z,1003.22
2022-10-21T07:40:52.281Z,1002.89
2022-10-21T07:41:52.246Z,1002.90
2022-10-21T07:42:52.219Z,1003.24
2022-10-21T07:43:52.175Z,1003.20
2022-10-21T07:44:52.141Z,1003.28
2022-10-21T07:45:52.096Z,1002.98
2022-10-21T07:46:52.055Z,1003.31
2022-10-21T07:47:52.014Z,1002.97
2022-10-21T07:48:51.972Z,1003.31
2022-10-21T07:49:51.936Z,1002.99
2022-10-21T07:50:51.906Z,1003.10
2022-10-21T07:51:51.858Z,1002.97
2022-10-21T07:53:00.568Z,1003.33
2022-10-21T07:53:51.789Z,1003.11
2022-10-21T07:54:51.751Z,1002.99
2022-10-21T07:55:51.702Z,1002.98
2022-10-21T07:56:51.673Z,1003.03
2022-10-21T07:57:51.625Z,1003.06
2022-10-21T07:58:51.599Z,1003.38
2022-10-21T07:59:51.569Z,1003.03
2022-10-21T08:00:51.619Z,1003.01
2022-10-21T08:01:51.485Z,1002.99
2022-10-21T08:02:51.432Z,1003.29
2022-10-21T08:03:51.399Z,1002.98
2022-10-21T08:04:51.368Z,1002.98
2022-10-21T08:05:51.318Z,1002.92
2022-10-21T08:06:51.285Z,1002.91
2022-10-21T08:07:51.237Z,1002.96
2022-10-21T08:08:51.255Z,1002.98
2022-10-21T08:09:51.173Z,1002.94
2022-10-21T08:10:51.133Z,1003.00
2022-10-21T08:11:51.099Z,1003.03
2022-10-21T08:12:51.043Z,1003.02
2022-10-21T08:13:51.005Z,1002.99
2022-10-21T08:14:50.972Z,1003.02
2022-10-21T08:15:50.976Z,1003.00
2022-10-21T08:16:50.919Z,1003.03
2022-10-21T08:17:50.849Z,1003.00
2022-10-21T08:18:50.811Z,1003.01
2022-10-21T08:19:50.798Z,1003.07
2022-10-21T08:20:50.739Z,1003.03
2022-10-21T08:21:50.704Z,1003.09
2022-10-21T08:22:50.680Z,1003.36
2022-10-21T08:23:50.624Z,1003.04
2022-10-21T08:24:50.575Z,1003.34
2022-10-21T08:25:50.547Z,1003.29
2022-10-21T08:26:50.496Z,1003.05
2022-10-21T08:27:50.457Z,1003.03
2022-10-21T08:28:50.445Z,1003.03
2022-10-21T08:29:50.411Z,1003.40
2022-10-21T08:30:50.346Z,1003.07
2022-10-21T08:31:50.299Z,1003.42
2022-10-21T08:32:50.273Z,1003.14
2022-10-21T08:33:50.233Z,1003.07
2022-10-21T08:34:50.191Z,1003.09
2022-10-21T08:35:50.159Z,1003.10
2022-10-21T08:36:50.104Z,1003.12
2022-10-21T08:37:50.094Z,1003.38
2022-10-21T08:38:50.031Z,1003.09
2022-10-21T08:39:49.986Z,1003.10
2022-10-21T08:40:52.321Z,1003.08
2022-10-21T08:41:49.935Z,1003.37
2022-10-21T08:42:49.868Z,1003.04
2022-10-21T08:43:50.563Z,1003.03
2022-10-21T08:44:49.812Z,1003.06
2022-10-21T08:45:49.749Z,1003.07
2022-10-21T08:46:49.718Z,1003.03
2022-10-21T08:47:49.681Z,1003.06
2022-10-21T08:48:49.645Z,1003.07
2022-10-21T08:49:49.595Z,1003.05
2022-10-21T08:50:50.820Z,1003.11
2022-10-21T08:51:49.523Z,1003.08
2022-10-21T08:52:49.478Z,1003.07
2022-10-21T08:53:49.451Z,1003.13
2022-10-21T08:54:49.399Z,1003.10
2022-10-21T08:55:50.107Z,1003.06
2022-10-21T08:56:49.321Z,1003.15
2022-10-21T08:57:49.283Z,1003.10
2022-10-21T08:58:49.259Z,1003.10
2022-10-21T08:59:49.207Z,1003.17
2022-10-21T09:00:49.172Z,1003.14
2022-10-21T09:01:49.126Z,1003.13
2022-10-21T09:02:49.126Z,1003.11
2022-10-21T09:03:49.047Z,1003.14
2022-10-21T09:04:49.046Z,1003.17
2022-10-21T09:05:48.967Z,1003.33
2022-10-21T09:06:48.938Z,1003.16
2022-10-21T09:07:48.888Z,1003.12
2022-10-21T09:08:50.648Z,1003.42
2022-10-21T09:09:48.823Z,1003.11
2022-10-21T09:10:48.792Z,1003.06
2022-10-21T09:11:48.747Z,1003.12
2022-10-21T09:12:48.694Z,1003.08
2022-10-21T09:13:48.664Z,1003.10
2022-10-21T09:14:48.618Z,1003.12
2022-10-21T09:15:48.581Z,1003.11
2022-10-21T09:16:48.558Z,1003.09
2022-10-21T09:17:48.503Z,1003.09
2022-10-21T09:18:48.474Z,1003.12
2022-10-21T09:19:48.439Z,1003.15
2022-10-21T09:20:52.122Z,1003.10
2022-10-21T09:21:48.360Z,1003.10
2022-10-21T09:22:48.305Z,1003.41
2022-10-21T09:23:48.272Z,1003.12
2022-10-21T09:24:48.230Z,1003.12
2022-10-21T09:25:52.187Z,1003.49
2022-10-21T09:26:49.566Z,1003.20
2022-10-21T09:27:55.986Z,1003.55
2022-10-21T09:28:48.086Z,1003.49
2022-10-21T09:29:48.032Z,1003.19
2022-10-21T09:30:47.992Z,1003.50
2022-10-21T09:31:53.198Z,1003.13
2022-10-21T09:32:47.932Z,1003.43
2022-10-21T09:33:48.074Z,1003.10
2022-10-21T09:34:47.836Z,1003.22
2022-10-21T09:35:47.820Z,1003.04
2022-10-21T09:36:47.760Z,1003.06
2022-10-21T09:37:47.724Z,1003.09
2022-10-21T09:38:47.686Z,1003.13
2022-10-21T09:39:47.650Z,1003.19
2022-10-21T09:40:47.603Z,1003.27
2022-10-21T09:41:47.574Z,1003.66
2022-10-21T09:42:48.288Z,1003.68
2022-10-21T09:43:47.532Z,1003.69
2022-10-21T09:44:50.518Z,1003.39
2022-10-21T09:45:47.415Z,1003.63
2022-10-21T09:46:48.594Z,1003.61
2022-10-21T09:47:47.340Z,1003.25
2022-10-21T09:49:14.385Z,1003.27
2022-10-21T09:50:06.367Z,1003.28
2022-10-21T09:50:47.241Z,1003.22
2022-10-21T09:51:47.188Z,1003.20
2022-10-21T09:52:47.228Z,1003.18
2022-10-21T09:53:53.674Z,1003.51
2022-10-21T09:54:47.059Z,1003.22
2022-10-21T09:55:47.053Z,1003.20
2022-10-21T09:56:46.979Z,1003.24
2022-10-21T09:57:46.950Z,1003.34
2022-10-21T09:58:46.912Z,1003.41
2022-10-21T09:59:46.863Z,1003.41
2022-10-21T10:00:46.830Z,1003.41
2022-10-21T10:01:46.846Z,1003.45
2022-10-21T10:02:46.750Z,1003.45
2022-10-21T10:03:46.706Z,1003.46
2022-10-21T10:04:46.682Z,1003.42
2022-10-21T10:05:46.629Z,1003.61
2022-10-21T10:06:46.606Z,1003.75
2022-10-21T10:07:46.552Z,1003.47
2022-10-21T10:08:46.634Z,1003.51
2022-10-21T10:09:46.473Z,1003.51
2022-10-21T10:10:46.447Z,1003.57
2022-10-21T10:11:46.395Z,1004.00
2022-10-21T10:12:46.364Z,1003.86
2022-10-21T10:13:46.323Z,1003.95
2022-10-21T10:14:46.283Z,1004.04
2022-10-21T10:15:46.252Z,1004.05
2022-10-21T10:16:46.207Z,1004.21
2022-10-21T10:17:46.163Z,1003.92
2022-10-21T10:18:46.163Z,1003.86
2022-10-21T10:19:46.090Z,1003.84
2022-10-21T10:20:46.063Z,1003.81
2022-10-21T10:21:46.045Z,1003.74
2022-10-21T10:22:45.972Z,1003.73
2022-10-21T10:23:45.927Z,1003.68
2022-10-21T10:24:45.896Z,1003.68
2022-10-21T10:25:45.857Z,1003.65
2022-10-21T10:26:45.844Z,1003.73
2022-10-21T10:27:45.785Z,1003.81
2022-10-21T10:28:45.740Z,1003.76
2022-10-21T10:29:45.705Z,1003.78
2022-10-21T10:30:45.666Z,1003.77
2022-10-21T10:31:45.718Z,1003.77
2022-10-21T10:32:45.582Z,1003.82
2022-10-21T10:33:45.556Z,1003.76
2022-10-21T10:34:45.520Z,1003.76
2022-10-21T10:35:45.469Z,1003.70
2022-10-21T10:36:45.438Z,1003.73
2022-10-21T10:37:45.397Z,1004.06
2022-10-21T10:38:45.366Z,1004.11
2022-10-21T10:39:45.312Z,1003.85
2022-10-21T10:40:45.285Z,1003.90
2022-10-21T10:41:45.240Z,1003.99
2022-10-21T10:42:45.212Z,1003.93
2022-10-21T10:43:45.161Z,1003.93
2022-10-21T10:44:45.122Z,1003.93
2022-10-21T10:45:45.090Z,1004.19
2022-10-21T10:46:45.214Z,1003.86
2022-10-21T10:47:45.083Z,1003.97
2022-10-21T10:48:45.002Z,1003.84
2022-10-21T10:49:44.929Z,1003.86
2022-10-21T10:50:44.891Z,1003.97
2022-10-21T10:51:44.856Z,1003.88
2022-10-21T10:52:44.813Z,1003.86
2022-10-21T10:53:44.802Z,1004.19
2022-10-21T10:54:44.739Z,1003.86
2022-10-21T10:55:44.724Z,1003.86
2022-10-21T10:56:44.656Z,1003.91
2022-10-21T10:57:58.517Z,1003.91
2022-10-21T10:58:44.602Z,1003.93
2022-10-21T10:59:44.560Z,1003.98
2022-10-21T11:00:44.609Z,1004.00
2022-10-21T11:01:44.477Z,1003.98
2022-10-21T11:02:44.425Z,1003.96
2022-10-21T11:03:44.475Z,1003.93
2022-10-21T11:05:44.311Z,1003.96
2022-10-21T11:06:44.270Z,1004.01
2022-10-21T11:07:44.240Z,1003.99
2022-10-21T11:08:59.277Z,1003.94
2022-10-21T11:09:44.154Z,1004.07
2022-10-21T11:10:44.128Z,1003.93
2022-10-21T11:11:44.077Z,1003.93
2022-10-21T11:12:44.038Z,1003.87
2022-10-21T11:13:43.999Z,1003.89
2022-10-21T11:14:43.974Z,1003.89
2022-10-21T11:15:43.921Z,1003.91
2022-10-21T11:16:57.324Z,1003.89
2022-10-21T11:17:43.847Z,1004.17
2022-10-21T11:18:46.428Z,1004.22
2022-10-21T11:19:43.853Z,1003.83
2022-10-21T11:20:43.747Z,1003.93
2022-10-21T11:21:43.691Z,1003.88
2022-10-21T11:22:43.734Z,1003.85
2022-10-21T11:23:43.634Z,1003.85
2022-10-21T11:24:43.575Z,1003.83
2022-10-21T11:25:43.543Z,1003.86
2022-10-21T11:26:43.541Z,1003.87
2022-10-21T11:27:43.457Z,1003.84
2022-10-21T11:28:43.427Z,1003.82
2022-10-21T11:29:43.381Z,1003.85
2022-10-21T11:30:43.348Z,1003.83
2022-10-21T11:31:53.974Z,1003.80
2022-10-21T11:32:43.283Z,1003.81
2022-10-21T11:33:43.232Z,1003.85
2022-10-21T11:34:43.200Z,1003.82
2022-10-21T11:35:43.240Z,1003.80
2022-10-21T11:36:43.125Z,1003.81
2022-10-21T11:37:43.077Z,1003.76
2022-10-21T11:38:43.039Z,1004.11
2022-10-21T11:39:43.007Z,1004.11
2022-10-21T11:40:42.968Z,1003.78
2022-10-21T11:41:42.948Z,1003.71
2022-10-21T11:42:42.889Z,1003.69
2022-10-21T11:43:42.868Z,1003.72
2022-10-21T11:44:42.824Z,1003.72
2022-10-21T11:45:42.772Z,1003.74
2022-10-21T11:46:42.739Z,1003.72
2022-10-21T11:47:42.698Z,1004.05
2022-10-21T11:48:42.666Z,1003.74
2022-10-21T11:49:42.619Z,1004.05
2022-10-21T11:50:42.597Z,1004.08
2022-10-21T11:51:42.621Z,1003.80
2022-10-21T11:52:42.656Z,1003.79
2022-10-21T11:53:42.470Z,1003.77
2022-10-21T11:54:56.630Z,1003.77
2022-10-21T11:55:42.392Z,1003.75
2022-10-21T11:56:42.367Z,1003.75
2022-10-21T11:57:42.317Z,1003.95
2022-10-21T11:58:42.279Z,1003.74
2022-10-21T11:59:44.187Z,1003.80
2022-10-21T12:00:42.208Z,1003.77
2022-10-21T12:01:42.209Z,1003.91
2022-10-21T12:02:42.492Z,1003.96
2022-10-21T12:03:42.093Z,1004.06
2022-10-21T12:04:42.056Z,1003.73
2022-10-21T12:05:42.020Z,1003.76
2022-10-21T12:06:41.992Z,1003.76
2022-10-21T12:07:42.018Z,1003.79